Time;durP1;ratioP1;P1;durP2;ratioP2;P2;SDS_P1;SDS_P2;PMS_P1;PMS_P2;Temp;Humidity;BMP_temperature;BMP_pressure;BME280_temperature;BME280_humidity;BME280_pressure;Samples;Min_cycle;Max_cycle;Signal;HPM_P1;HPM_P2
2022/07/31 00:01:02;;;;;;;4.90;4.53;;;;;;;;;;5023829;28;20170;-61
2022/07/31 00:03:27;;;;;;;4.88;4.47;;;;;;;;;;5041400;28;20029;-61
2022/07/31 00:05:53;;;;;;;4.63;4.28;;;;;;;;;;5040193;28;20029;-61
2022/07/31 00:08:19;;;;;;;4.60;4.28;;;;;;;;;;5042534;28;20024;-63
2022/07/31 00:10:44;;;;;;;4.78;4.40;;;;;;;;;;5041892;28;20045;-61
2022/07/31 00:13:09;;;;;;;5.00;4.68;;;;;;;;;;5043664;28;20017;-61
2022/07/31 00:15:34;;;;;;;5.00;4.55;;;;;;;;;;5041104;28;20027;-61
2022/07/31 00:17:59;;;;;;;5.00;4.70;;;;;;;;;;5041905;28;20139;-60
2022/07/31 00:20:25;;;;;;;4.50;4.10;;;;;;;;;;5041816;28;20368;-61
2022/07/31 00:22:50;;;;;;;4.50;4.10;;;;;;;;;;5044702;28;20036;-61
2022/07/31 00:25:15;;;;;;;5.10;4.65;;;;;;;;;;5037689;28;20028;-61
2022/07/31 00:27:41;;;;;;;4.20;3.90;;;;;;;;;;5041108;28;20071;-61
2022/07/31 00:30:07;;;;;;;4.80;4.50;;;;;;;;;;5039793;28;20559;-61
2022/07/31 00:32:32;;;;;;;4.90;4.47;;;;;;;;;;5043569;28;20484;-61
2022/07/31 00:34:57;;;;;;;5.25;4.38;;;;;;;;;;5041233;28;20083;-61
2022/07/31 00:37:23;;;;;;;5.18;4.78;;;;;;;;;;5039603;28;20062;-61
2022/07/31 00:39:48;;;;;;;4.82;4.45;;;;;;;;;;5040005;28;20052;-61
2022/07/31 00:42:20;;;;;;;4.72;4.32;;;;;;;;;;5043008;28;20051;-61
2022/07/31 00:44:45;;;;;;;5.93;4.35;;;;;;;;;;5040435;28;20033;-61
2022/07/31 00:47:11;;;;;;;4.80;4.32;;;;;;;;;;5040832;28;20103;-61
2022/07/31 00:49:36;;;;;;;6.47;4.55;;;;;;;;;;5039876;28;20397;-61
2022/07/31 00:52:01;;;;;;;4.90;4.50;;;;;;;;;;5042536;28;20044;-64
2022/07/31 00:54:26;;;;;;;5.10;4.70;;;;;;;;;;5019888;28;20029;-61
2022/07/31 00:56:52;;;;;;;5.35;4.90;;;;;;;;;;5039621;28;20029;-61
2022/07/31 00:59:17;;;;;;;4.93;4.53;;;;;;;;;;5040974;28;20027;-61
2022/07/31 01:01:42;;;;;;;4.30;3.90;;;;;;;;;;5040597;28;20033;-61
2022/07/31 01:04:07;;;;;;;6.32;4.30;;;;;;;;;;5038962;28;20183;-61
2022/07/31 01:06:32;;;;;;;4.22;3.92;;;;;;;;;;5023308;28;20066;-61
2022/07/31 01:08:58;;;;;;;5.13;4.47;;;;;;;;;;5038772;28;20029;-61
2022/07/31 01:11:23;;;;;;;5.10;4.60;;;;;;;;;;5040762;28;20033;-61
2022/07/31 01:13:53;;;;;;;4.90;4.50;;;;;;;;;;5041421;28;20388;-61
2022/07/31 01:16:20;;;;;;;4.90;4.65;;;;;;;;;;5023303;28;20055;-61
2022/07/31 01:18:46;;;;;;;4.93;4.38;;;;;;;;;;5041518;28;20056;-61
2022/07/31 01:21:13;;;;;;;5.40;5.00;;;;;;;;;;5025851;28;20396;-62
2022/07/31 01:23:57;;;;;;;5.78;4.60;;;;;;;;;;5039195;28;20033;-61
2022/07/31 01:26:28;;;;;;;5.10;4.80;;;;;;;;;;5041695;28;20156;-63
2022/07/31 01:29:02;;;;;;;4.50;4.13;;;;;;;;;;5040655;28;20102;-61
2022/07/31 01:31:38;;;;;;;5.10;4.75;;;;;;;;;;5041563;28;20102;-60
2022/07/31 01:34:12;;;;;;;4.97;4.63;;;;;;;;;;5041008;28;20025;-61
2022/07/31 01:36:40;;;;;;;4.47;4.17;;;;;;;;;;5044582;28;20025;-61
2022/07/31 01:39:06;;;;;;;4.30;4.07;;;;;;;;;;5043076;28;20295;-61
2022/07/31 01:41:34;;;;;;;5.28;4.88;;;;;;;;;;5037645;28;20575;-61
2022/07/31 01:44:02;;;;;;;5.55;5.25;;;;;;;;;;5040895;28;20031;-61
2022/07/31 01:46:27;;;;;;;5.53;5.13;;;;;;;;;;5043325;28;20040;-60
2022/07/31 01:48:54;;;;;;;5.45;4.95;;;;;;;;;;5043757;28;20538;-60
2022/07/31 01:51:20;;;;;;;5.50;5.00;;;;;;;;;;5039465;28;20029;-60
2022/07/31 01:53:46;;;;;;;5.63;5.13;;;;;;;;;;5041499;28;20032;-60
2022/07/31 01:56:11;;;;;;;5.60;5.10;;;;;;;;;;5043390;28;20039;-60
2022/07/31 01:58:38;;;;;;;11.85;4.97;;;;;;;;;;5041607;28;20586;-60
2022/07/31 02:01:05;;;;;;;5.25;4.53;;;;;;;;;;5044116;28;20150;-60
2022/07/31 02:03:31;;;;;;;4.85;4.45;;;;;;;;;;5047167;28;20112;-60
2022/07/31 02:05:56;;;;;;;5.18;4.85;;;;;;;;;;5048780;28;20415;-61
2022/07/31 02:08:23;;;;;;;6.57;5.85;;;;;;;;;;5046470;28;20029;-60
2022/07/31 02:10:49;;;;;;;5.95;5.55;;;;;;;;;;5044772;28;20335;-60
2022/07/31 02:13:15;;;;;;;5.55;4.97;;;;;;;;;;5046444;28;20021;-60
2022/07/31 02:15:42;;;;;;;5.78;5.35;;;;;;;;;;5047424;28;20033;-60
2022/07/31 02:18:09;;;;;;;5.60;5.10;;;;;;;;;;5045867;28;20021;-60
2022/07/31 02:20:35;;;;;;;7.00;5.47;;;;;;;;;;5044692;28;20024;-60
2022/07/31 02:23:00;;;;;;;7.18;5.43;;;;;;;;;;5044942;28;20041;-60
2022/07/31 02:25:26;;;;;;;6.45;5.85;;;;;;;;;;5029504;28;20044;-59
2022/07/31 02:27:53;;;;;;;6.10;5.60;;;;;;;;;;5044735;28;20017;-60
2022/07/31 02:30:19;;;;;;;6.45;5.82;;;;;;;;;;5043871;28;20087;-60
2022/07/31 02:32:45;;;;;;;6.20;5.38;;;;;;;;;;5047343;28;20483;-61
2022/07/31 02:35:11;;;;;;;5.82;5.43;;;;;;;;;;5047483;28;20044;-60
2022/07/31 02:37:37;;;;;;;5.82;5.43;;;;;;;;;;5025522;28;20050;-60
2022/07/31 02:40:03;;;;;;;6.90;6.30;;;;;;;;;;5043858;28;20029;-60
2022/07/31 02:42:29;;;;;;;7.97;5.97;;;;;;;;;;5043848;28;20045;-59
2022/07/31 02:44:54;;;;;;;6.47;5.88;;;;;;;;;;5029566;28;20085;-60
2022/07/31 02:47:20;;;;;;;6.43;5.82;;;;;;;;;;5044191;28;20032;-60
2022/07/31 02:49:45;;;;;;;6.22;5.72;;;;;;;;;;5044750;28;20033;-60
2022/07/31 02:52:11;;;;;;;5.95;5.45;;;;;;;;;;5046934;28;20025;-61
2022/07/31 02:54:38;;;;;;;6.75;6.20;;;;;;;;;;5025875;28;20130;-60
2022/07/31 02:57:04;;;;;;;7.00;6.43;;;;;;;;;;5043324;28;20033;-60
2022/07/31 02:59:29;;;;;;;8.68;6.68;;;;;;;;;;5044355;28;20032;-60
2022/07/31 03:01:54;;;;;;;6.95;6.30;;;;;;;;;;5046393;28;20037;-61
2022/07/31 03:04:20;;;;;;;7.38;6.68;;;;;;;;;;5044843;28;20075;-60
2022/07/31 03:06:47;;;;;;;6.90;6.30;;;;;;;;;;5043115;28;20181;-60
2022/07/31 03:09:13;;;;;;;7.28;6.75;;;;;;;;;;5027664;28;20327;-60
2022/07/31 03:11:38;;;;;;;7.15;6.45;;;;;;;;;;5046066;28;20071;-60
2022/07/31 03:14:04;;;;;;;8.38;7.68;;;;;;;;;;5045018;28;20025;-60
2022/07/31 03:16:30;;;;;;;7.70;7.00;;;;;;;;;;5043585;28;20381;-60
2022/07/31 03:18:56;;;;;;;8.05;6.70;;;;;;;;;;5044712;28;20032;-61
2022/07/31 03:21:22;;;;;;;8.57;7.05;;;;;;;;;;5046705;28;20041;-60
2022/07/31 03:23:48;;;;;;;7.28;6.68;;;;;;;;;;5044813;28;20433;-60
2022/07/31 03:26:14;;;;;;;7.40;6.60;;;;;;;;;;5043043;28;20052;-60
2022/07/31 03:28:39;;;;;;;7.90;7.30;;;;;;;;;;5045716;28;20476;-60
2022/07/31 03:31:06;;;;;;;7.65;6.85;;;;;;;;;;5046711;28;20120;-61
2022/07/31 03:33:32;;;;;;;7.85;7.18;;;;;;;;;;5044205;28;20021;-61
2022/07/31 03:35:57;;;;;;;8.48;7.80;;;;;;;;;;5043554;28;20584;-60
2022/07/31 03:38:23;;;;;;;8.68;7.97;;;;;;;;;;5044852;28;20029;-61
2022/07/31 03:40:48;;;;;;;7.85;6.55;;;;;;;;;;5043150;28;20053;-59
2022/07/31 03:43:14;;;;;;;7.38;6.75;;;;;;;;;;5041115;28;20027;-60
2022/07/31 03:45:40;;;;;;;9.38;7.30;;;;;;;;;;5042653;28;20033;-61
2022/07/31 03:48:07;;;;;;;8.02;7.43;;;;;;;;;;5044493;28;20036;-60
2022/07/31 03:50:33;;;;;;;7.82;7.10;;;;;;;;;;5043556;28;20029;-60
2022/07/31 03:52:58;;;;;;;7.35;6.75;;;;;;;;;;5024029;28;20033;-60
2022/07/31 03:55:24;;;;;;;8.10;7.50;;;;;;;;;;5041596;28;20052;-61
2022/07/31 03:57:50;;;;;;;7.53;6.82;;;;;;;;;;5040075;28;20407;-61
2022/07/31 04:00:16;;;;;;;7.40;6.80;;;;;;;;;;5037291;28;20176;-61
2022/07/31 04:02:41;;;;;;;7.28;6.68;;;;;;;;;;5038420;28;20033;-61
2022/07/31 04:05:07;;;;;;;7.85;7.22;;;;;;;;;;5039420;28;20538;-61
2022/07/31 04:07:32;;;;;;;7.45;6.75;;;;;;;;;;5039887;28;20035;-61
2022/07/31 04:09:58;;;;;;;7.32;6.70;;;;;;;;;;5038912;28;20353;-61
2022/07/31 04:12:23;;;;;;;8.45;6.97;;;;;;;;;;5039707;28;20029;-60
2022/07/31 04:14:48;;;;;;;8.25;7.57;;;;;;;;;;5039691;28;20037;-61
2022/07/31 04:17:13;;;;;;;9.10;7.47;;;;;;;;;;5038378;28;20040;-61
2022/07/31 04:19:39;;;;;;;7.35;6.65;;;;;;;;;;5038204;28;20490;-61
2022/07/31 04:22:04;;;;;;;7.35;6.47;;;;;;;;;;5040490;28;20108;-61
2022/07/31 04:24:29;;;;;;;7.35;6.85;;;;;;;;;;5036853;28;20033;-61
2022/07/31 04:26:55;;;;;;;7.53;6.63;;;;;;;;;;5035989;28;20033;-61
2022/07/31 04:29:20;;;;;;;6.95;6.35;;;;;;;;;;5039478;28;20578;-61
2022/07/31 04:31:46;;;;;;;7.43;6.90;;;;;;;;;;5039810;28;20033;-61
2022/07/31 04:34:18;;;;;;;9.63;6.47;;;;;;;;;;5039358;28;20487;-61
2022/07/31 04:36:44;;;;;;;7.38;6.88;;;;;;;;;;5023870;28;20426;-61
2022/07/31 04:39:09;;;;;;;6.82;6.32;;;;;;;;;;5041671;28;20033;-60
2022/07/31 04:41:34;;;;;;;8.52;7.72;;;;;;;;;;5039409;28;20110;-60
2022/07/31 04:44:00;;;;;;;6.80;6.30;;;;;;;;;;5040298;28;20318;-60
2022/07/31 04:46:25;;;;;;;7.57;6.43;;;;;;;;;;5043108;28;20068;-60
2022/07/31 04:48:50;;;;;;;6.82;6.15;;;;;;;;;;5039338;28;20391;-60
2022/07/31 04:51:17;;;;;;;7.90;7.03;;;;;;;;;;5039658;28;20058;-63
2022/07/31 04:53:42;;;;;;;6.75;5.95;;;;;;;;;;5042102;28;20060;-61
2022/07/31 04:58:52;;;;;;;7.18;6.38;;;;;;;;;;5041811;28;20036;-61
2022/07/31 05:01:17;;;;;;;6.10;5.57;;;;;;;;;;5041004;28;20400;-62
2022/07/31 05:03:42;;;;;;;5.55;5.03;;;;;;;;;;5041304;28;20080;-62
2022/07/31 05:06:09;;;;;;;6.75;6.15;;;;;;;;;;5035568;28;20356;-62
2022/07/31 05:08:34;;;;;;;8.38;7.15;;;;;;;;;;5037378;28;20359;-62
2022/07/31 05:13:43;;;;;;;5.95;5.43;;;;;;;;;;5044336;28;20040;-62
2022/07/31 05:16:11;;;;;;;7.25;6.63;;;;;;;;;;5021151;28;20108;-62
2022/07/31 05:18:37;;;;;;;6.50;6.00;;;;;;;;;;5039216;28;20024;-63
2022/07/31 05:21:02;;;;;;;5.80;5.40;;;;;;;;;;5039750;28;20017;-62
2022/07/31 05:23:28;;;;;;;6.93;6.32;;;;;;;;;;5036702;28;20096;-62
2022/07/31 05:25:53;;;;;;;6.20;5.70;;;;;;;;;;5036721;28;20060;-62
2022/07/31 05:28:18;;;;;;;6.03;5.63;;;;;;;;;;5038387;28;20527;-62
2022/07/31 05:30:43;;;;;;;6.20;5.40;;;;;;;;;;5039489;28;20403;-61
2022/07/31 05:33:09;;;;;;;5.72;5.28;;;;;;;;;;5040942;28;20465;-62
2022/07/31 05:35:34;;;;;;;6.25;5.85;;;;;;;;;;5036781;28;20108;-62
2022/07/31 05:37:59;;;;;;;6.68;5.95;;;;;;;;;;5036497;28;20095;-62
2022/07/31 05:40:24;;;;;;;7.97;5.57;;;;;;;;;;5038616;28;20506;-62
2022/07/31 05:42:50;;;;;;;5.85;5.45;;;;;;;;;;5037523;28;20439;-62
2022/07/31 05:45:15;;;;;;;6.45;5.95;;;;;;;;;;5034893;28;20682;-61
2022/07/31 05:47:40;;;;;;;5.78;5.28;;;;;;;;;;5037188;28;20029;-62
2022/07/31 05:50:07;;;;;;;5.63;5.15;;;;;;;;;;5040473;28;20060;-62
2022/07/31 05:52:32;;;;;;;6.53;5.88;;;;;;;;;;5019154;28;20257;-61
2022/07/31 05:54:57;;;;;;;5.30;4.90;;;;;;;;;;5030474;28;20032;-61
2022/07/31 05:57:22;;;;;;;5.70;5.13;;;;;;;;;;5033628;28;20124;-62
2022/07/31 05:59:48;;;;;;;6.25;4.95;;;;;;;;;;5042023;28;20064;-61
2022/07/31 06:02:13;;;;;;;7.82;5.03;;;;;;;;;;5042504;28;20044;-62
2022/07/31 06:04:38;;;;;;;5.18;4.68;;;;;;;;;;5038358;28;20029;-62
2022/07/31 06:07:03;;;;;;;5.05;4.55;;;;;;;;;;5035793;28;20021;-61
2022/07/31 06:09:29;;;;;;;4.88;4.18;;;;;;;;;;5011270;28;20138;-61
2022/07/31 06:11:54;;;;;;;4.10;3.90;;;;;;;;;;5038732;28;20044;-62
2022/07/31 06:14:19;;;;;;;4.60;4.30;;;;;;;;;;5034594;28;20029;-62
2022/07/31 06:16:46;;;;;;;3.90;3.55;;;;;;;;;;5038178;28;20070;-61
2022/07/31 06:19:11;;;;;;;5.78;3.47;;;;;;;;;;5036775;28;20110;-62
2022/07/31 06:21:37;;;;;;;4.15;3.78;;;;;;;;;;5036201;28;20044;-60
2022/07/31 06:24:02;;;;;;;4.82;4.15;;;;;;;;;;5036127;28;20029;-63
2022/07/31 06:26:27;;;;;;;5.38;4.28;;;;;;;;;;5035197;28;20025;-61
2022/07/31 06:28:53;;;;;;;14.15;9.90;;;;;;;;;;5037308;28;20033;-62
2022/07/31 06:31:19;;;;;;;5.53;3.92;;;;;;;;;;5036416;28;20082;-63
2022/07/31 06:33:44;;;;;;;5.18;3.30;;;;;;;;;;5036636;28;20025;-63
2022/07/31 06:36:09;;;;;;;4.90;4.05;;;;;;;;;;5019800;28;20064;-62
2022/07/31 06:38:34;;;;;;;3.78;2.88;;;;;;;;;;5019052;28;20033;-63
2022/07/31 06:41:00;;;;;;;5.38;3.10;;;;;;;;;;5033922;28;20491;-62
2022/07/31 06:43:25;;;;;;;3.47;3.22;;;;;;;;;;5035271;28;20063;-65
2022/07/31 06:45:50;;;;;;;3.80;3.50;;;;;;;;;;5035647;28;20041;-60
2022/07/31 06:48:15;;;;;;;4.60;3.03;;;;;;;;;;5042108;28;20459;-60
2022/07/31 06:50:41;;;;;;;3.65;3.35;;;;;;;;;;5038471;28;20509;-60
2022/07/31 06:53:06;;;;;;;3.67;3.03;;;;;;;;;;5039310;28;20475;-61
2022/07/31 06:55:31;;;;;;;2.80;2.60;;;;;;;;;;5040920;28;20041;-60
2022/07/31 06:57:56;;;;;;;4.38;3.10;;;;;;;;;;5039642;28;20036;-60
2022/07/31 07:00:23;;;;;;;4.45;2.97;;;;;;;;;;5034842;28;20060;-59
2022/07/31 07:02:48;;;;;;;5.65;3.42;;;;;;;;;;5020137;28;20041;-59
2022/07/31 07:05:13;;;;;;;3.28;2.97;;;;;;;;;;5038007;28;20080;-59
2022/07/31 07:07:38;;;;;;;3.60;3.40;;;;;;;;;;5037902;28;20067;-59
2022/07/31 07:10:04;;;;;;;4.00;3.70;;;;;;;;;;5039141;28;20521;-59
2022/07/31 07:12:29;;;;;;;6.03;4.03;;;;;;;;;;5039046;28;20036;-59
2022/07/31 07:14:55;;;;;;;6.13;4.32;;;;;;;;;;5042455;28;20508;-59
2022/07/31 07:17:20;;;;;;;4.43;3.88;;;;;;;;;;5020310;28;20474;-59
2022/07/31 07:19:45;;;;;;;4.30;3.58;;;;;;;;;;5029090;28;20507;-59
2022/07/31 07:22:11;;;;;;;4.32;4.03;;;;;;;;;;5047463;28;20518;-61
2022/07/31 07:24:36;;;;;;;4.25;3.85;;;;;;;;;;5059351;28;20069;-59
2022/07/31 07:27:02;;;;;;;6.93;4.10;;;;;;;;;;5059911;28;20029;-60
2022/07/31 07:29:27;;;;;;;7.78;4.18;;;;;;;;;;5039354;28;20028;-59
2022/07/31 07:31:52;;;;;;;6.38;3.60;;;;;;;;;;5057598;28;20039;-59
2022/07/31 07:34:17;;;;;;;5.68;3.50;;;;;;;;;;5057670;28;20421;-60
2022/07/31 07:36:43;;;;;;;5.63;3.63;;;;;;;;;;5061217;28;20035;-61
2022/07/31 07:39:08;;;;;;;4.00;3.70;;;;;;;;;;5057535;28;20036;-61
2022/07/31 07:41:33;;;;;;;4.70;4.18;;;;;;;;;;5060695;28;20044;-60
2022/07/31 07:43:58;;;;;;;5.32;4.35;;;;;;;;;;5059387;28;20044;-59
2022/07/31 07:46:24;;;;;;;4.70;4.13;;;;;;;;;;5059374;28;20017;-60
2022/07/31 07:48:49;;;;;;;4.53;4.10;;;;;;;;;;5058451;28;20032;-60
2022/07/31 07:51:15;;;;;;;7.65;4.50;;;;;;;;;;5043251;28;20028;-59
2022/07/31 07:53:40;;;;;;;4.55;4.10;;;;;;;;;;5062073;28;20037;-59
2022/07/31 07:56:05;;;;;;;4.57;4.18;;;;;;;;;;5062118;28;20051;-59
2022/07/31 07:58:30;;;;;;;5.22;4.82;;;;;;;;;;5061166;28;20367;-59
2022/07/31 08:00:56;;;;;;;4.97;4.57;;;;;;;;;;5063313;28;20359;-58
2022/07/31 08:03:21;;;;;;;8.80;4.68;;;;;;;;;;5060588;28;20700;-59
2022/07/31 08:05:46;;;;;;;5.35;4.82;;;;;;;;;;5060376;28;20380;-60
2022/07/31 08:08:11;;;;;;;7.57;6.97;;;;;;;;;;5055212;28;20648;-60
2022/07/31 08:10:38;;;;;;;5.05;4.65;;;;;;;;;;5058042;28;20410;-60
2022/07/31 08:13:03;;;;;;;5.63;5.22;;;;;;;;;;5059798;28;20028;-60
2022/07/31 08:15:29;;;;;;;4.38;4.07;;;;;;;;;;5059952;28;20056;-60
2022/07/31 08:17:55;;;;;;;4.32;3.92;;;;;;;;;;5056640;28;20036;-61
2022/07/31 08:20:20;;;;;;;4.82;4.30;;;;;;;;;;5061202;28;20040;-59
2022/07/31 08:22:45;;;;;;;4.40;3.80;;;;;;;;;;5044394;28;20047;-61
2022/07/31 08:25:10;;;;;;;4.13;3.75;;;;;;;;;;5058384;28;20024;-60
2022/07/31 08:27:36;;;;;;;5.82;3.83;;;;;;;;;;5055703;28;20112;-59
2022/07/31 08:30:01;;;;;;;4.07;3.72;;;;;;;;;;5060482;28;20036;-59
2022/07/31 08:32:26;;;;;;;5.03;4.35;;;;;;;;;;5060892;28;20391;-60
2022/07/31 08:34:52;;;;;;;4.55;4.13;;;;;;;;;;5059247;28;20285;-60
2022/07/31 08:37:20;;;;;;;4.82;4.50;;;;;;;;;;5057012;28;20020;-61
2022/07/31 08:39:49;;;;;;;4.40;3.80;;;;;;;;;;5055923;28;20028;-59
2022/07/31 08:42:15;;;;;;;4.53;3.95;;;;;;;;;;5057612;28;20053;-60
2022/07/31 08:44:41;;;;;;;4.38;3.50;;;;;;;;;;5038789;28;20033;-60
2022/07/31 08:47:11;;;;;;;3.78;3.40;;;;;;;;;;5057479;28;20032;-60
2022/07/31 08:49:39;;;;;;;5.47;3.85;;;;;;;;;;5058988;28;20032;-61
2022/07/31 08:52:06;;;;;;;4.93;4.53;;;;;;;;;;5057705;28;20135;-60
2022/07/31 08:54:34;;;;;;;4.43;3.80;;;;;;;;;;5057860;28;20021;-60
2022/07/31 08:56:59;;;;;;;4.63;3.80;;;;;;;;;;5058423;28;20024;-60
2022/07/31 08:59:24;;;;;;;5.55;4.10;;;;;;;;;;5061737;28;20032;-60
2022/07/31 09:01:50;;;;;;;4.30;3.85;;;;;;;;;;5042779;28;20139;-61
2022/07/31 09:04:15;;;;;;;5.45;5.05;;;;;;;;;;5039486;28;20098;-60
2022/07/31 09:06:40;;;;;;;5.22;4.82;;;;;;;;;;5058338;28;20024;-61
2022/07/31 09:09:06;;;;;;;9.32;4.72;;;;;;;;;;5057623;28;20028;-61
2022/07/31 09:11:32;;;;;;;4.13;3.75;;;;;;;;;;5059735;28;20075;-60
2022/07/31 09:14:01;;;;;;;8.18;4.25;;;;;;;;;;5057608;28;20029;-61
2022/07/31 09:16:27;;;;;;;5.40;4.40;;;;;;;;;;5057844;28;20025;-61
2022/07/31 09:18:58;;;;;;;6.78;4.65;;;;;;;;;;5056688;28;20028;-61
2022/07/31 09:21:24;;;;;;;4.53;4.13;;;;;;;;;;5056034;28;20028;-60
2022/07/31 09:23:50;;;;;;;4.93;4.57;;;;;;;;;;5056440;28;20033;-61
2022/07/31 09:26:15;;;;;;;4.85;4.47;;;;;;;;;;5061403;28;20021;-61
2022/07/31 09:28:41;;;;;;;5.78;5.38;;;;;;;;;;5058844;28;20731;-61
2022/07/31 09:31:07;;;;;;;4.88;4.47;;;;;;;;;;5057323;28;20028;-60
2022/07/31 09:33:35;;;;;;;4.82;4.53;;;;;;;;;;5037835;28;20032;-61
2022/07/31 09:36:01;;;;;;;5.05;4.75;;;;;;;;;;5059038;28;20477;-61
2022/07/31 09:38:31;;;;;;;4.95;4.55;;;;;;;;;;5059759;28;20550;-61
2022/07/31 09:40:57;;;;;;;5.53;5.13;;;;;;;;;;5057265;28;20415;-61
2022/07/31 09:43:23;;;;;;;6.53;5.00;;;;;;;;;;5056320;28;20135;-61
2022/07/31 09:45:59;;;;;;;5.15;4.75;;;;;;;;;;5041319;28;20448;-61
2022/07/31 09:48:25;;;;;;;6.43;5.65;;;;;;;;;;5056177;28;20029;-61
2022/07/31 09:50:56;;;;;;;5.18;4.88;;;;;;;;;;5056681;28;20036;-60
2022/07/31 09:53:22;;;;;;;4.68;4.30;;;;;;;;;;5058997;28;20061;-60
2022/07/31 09:55:50;;;;;;;7.07;5.43;;;;;;;;;;5055479;28;20101;-61
2022/07/31 09:58:16;;;;;;;5.63;4.93;;;;;;;;;;5056539;28;20021;-61
2022/07/31 10:00:41;;;;;;;4.38;4.07;;;;;;;;;;5056953;28;20039;-60
2022/07/31 10:03:06;;;;;;;5.60;5.10;;;;;;;;;;5037959;28;20040;-61
2022/07/31 10:05:32;;;;;;;4.78;4.47;;;;;;;;;;5056620;28;20047;-61
2022/07/31 10:07:59;;;;;;;5.20;4.80;;;;;;;;;;5055506;28;20066;-61
2022/07/31 10:10:24;;;;;;;5.65;5.15;;;;;;;;;;5056196;28;20158;-60
2022/07/31 10:12:51;;;;;;;6.47;5.10;;;;;;;;;;5056367;28;20603;-60
2022/07/31 10:15:18;;;;;;;5.88;5.45;;;;;;;;;;5055437;28;20032;-60
2022/07/31 10:17:44;;;;;;;5.45;4.95;;;;;;;;;;5056639;28;20033;-60
2022/07/31 10:20:13;;;;;;;5.45;5.03;;;;;;;;;;5053840;28;20459;-61
2022/07/31 10:22:42;;;;;;;4.82;4.43;;;;;;;;;;5062946;28;20044;-63
2022/07/31 10:25:08;;;;;;;4.95;4.55;;;;;;;;;;5060353;28;20021;-61
2022/07/31 10:27:34;;;;;;;4.85;4.45;;;;;;;;;;5057895;28;20033;-60
2022/07/31 10:30:00;;;;;;;5.50;5.00;;;;;;;;;;5059212;28;20457;-66
2022/07/31 10:32:25;;;;;;;6.15;5.05;;;;;;;;;;5062605;28;20030;-60
2022/07/31 10:34:51;;;;;;;5.10;4.40;;;;;;;;;;5064735;28;20040;-60
2022/07/31 10:37:22;;;;;;;5.72;5.22;;;;;;;;;;5049015;28;20458;-61
2022/07/31 10:40:06;;;;;;;5.57;4.97;;;;;;;;;;5064761;28;20139;-61
2022/07/31 10:42:50;;;;;;;21.90;5.47;;;;;;;;;;5063234;28;20509;-60
2022/07/31 10:45:16;;;;;;;8.57;4.80;;;;;;;;;;5064730;28;21061;-61
2022/07/31 10:48:02;;;;;;;4.93;4.55;;;;;;;;;;5067218;28;20118;-61
2022/07/31 10:50:31;;;;;;;5.60;4.05;;;;;;;;;;5062798;28;20025;-63
2022/07/31 10:53:06;;;;;;;5.03;4.40;;;;;;;;;;5063694;28;20081;-62
2022/07/31 10:55:31;;;;;;;5.35;4.85;;;;;;;;;;5049718;28;20432;-62
2022/07/31 10:58:05;;;;;;;7.93;4.60;;;;;;;;;;5064507;28;20054;-62
2022/07/31 11:00:31;;;;;;;4.32;3.92;;;;;;;;;;5062839;28;20994;-62
2022/07/31 11:02:56;;;;;;;4.95;4.55;;;;;;;;;;5062031;28;20063;-61
2022/07/31 11:05:26;;;;;;;5.40;5.00;;;;;;;;;;5062970;28;20040;-60
2022/07/31 11:07:59;;;;;;;5.45;5.05;;;;;;;;;;5066608;28;20032;-61
2022/07/31 11:10:24;;;;;;;5.28;4.85;;;;;;;;;;5063202;28;20039;-61
2022/07/31 11:13:03;;;;;;;5.32;5.03;;;;;;;;;;5063740;28;20016;-60
2022/07/31 11:15:29;;;;;;;5.28;4.80;;;;;;;;;;5066725;28;20062;-60
2022/07/31 11:17:55;;;;;;;4.95;4.57;;;;;;;;;;5048169;28;20036;-60
2022/07/31 11:20:22;;;;;;;6.13;5.63;;;;;;;;;;5063419;28;20109;-62
2022/07/31 11:22:53;;;;;;;5.65;5.03;;;;;;;;;;5063251;28;20107;-61
2022/07/31 11:25:19;;;;;;;8.27;4.38;;;;;;;;;;5062442;28;20020;-60
2022/07/31 11:27:44;;;;;;;4.60;4.30;;;;;;;;;;5064449;28;20102;-60
2022/07/31 11:30:09;;;;;;;6.45;4.30;;;;;;;;;;5060358;28;20047;-60
2022/07/31 11:32:36;;;;;;;5.22;4.90;;;;;;;;;;5066304;28;20041;-60
2022/07/31 11:35:01;;;;;;;5.38;4.88;;;;;;;;;;5065648;28;20028;-61
2022/07/31 11:37:29;;;;;;;5.28;4.85;;;;;;;;;;5063649;28;20032;-59
2022/07/31 11:39:55;;;;;;;7.32;5.35;;;;;;;;;;5064449;28;20031;-62
2022/07/31 11:42:21;;;;;;;4.93;4.53;;;;;;;;;;5066067;28;20049;-67
2022/07/31 11:44:46;;;;;;;5.15;4.60;;;;;;;;;;5066855;28;20036;-61
2022/07/31 11:47:12;;;;;;;5.40;4.70;;;;;;;;;;5045577;28;20127;-61
2022/07/31 11:49:37;;;;;;;5.25;4.82;;;;;;;;;;5063876;28;20033;-62
2022/07/31 11:52:04;;;;;;;5.15;4.75;;;;;;;;;;5065515;28;20093;-62
2022/07/31 11:54:29;;;;;;;7.43;5.38;;;;;;;;;;5062068;28;20028;-63
2022/07/31 11:56:55;;;;;;;4.68;4.28;;;;;;;;;;5040015;28;20044;-62
2022/07/31 11:59:33;;;;;;;6.20;5.60;;;;;;;;;;5058874;28;20871;-61
2022/07/31 12:02:01;;;;;;;4.70;4.30;;;;;;;;;;5036998;28;20036;-61
2022/07/31 12:04:27;;;;;;;5.53;5.07;;;;;;;;;;5061491;28;20048;-61
2022/07/31 12:06:55;;;;;;;4.80;4.50;;;;;;;;;;5045196;28;20661;-61
2022/07/31 12:09:21;;;;;;;5.00;4.70;;;;;;;;;;5063325;28;20467;-61
2022/07/31 12:11:46;;;;;;;5.20;4.78;;;;;;;;;;5062493;28;20078;-62
2022/07/31 12:14:12;;;;;;;6.13;5.13;;;;;;;;;;5044186;28;20087;-61
2022/07/31 12:16:38;;;;;;;5.15;4.68;;;;;;;;;;5062665;28;20062;-61
2022/07/31 12:19:03;;;;;;;5.25;4.80;;;;;;;;;;5061860;28;20050;-61
2022/07/31 12:21:39;;;;;;;7.20;4.82;;;;;;;;;;5059207;28;20146;-62
2022/07/31 12:24:11;;;;;;;5.40;4.95;;;;;;;;;;5043254;28;20029;-63
2022/07/31 12:26:36;;;;;;;5.40;4.88;;;;;;;;;;5062312;28;20047;-63
2022/07/31 12:29:03;;;;;;;5.47;4.97;;;;;;;;;;5065032;28;20369;-62
2022/07/31 12:31:29;;;;;;;5.75;4.90;;;;;;;;;;5062595;28;20028;-63
2022/07/31 12:33:55;;;;;;;4.95;4.65;;;;;;;;;;5043823;28;20025;-63
2022/07/31 12:36:20;;;;;;;5.00;4.60;;;;;;;;;;5041081;28;20036;-64
2022/07/31 12:38:56;;;;;;;4.68;4.30;;;;;;;;;;5057392;28;20024;-65
2022/07/31 12:41:21;;;;;;;5.18;4.78;;;;;;;;;;5062141;28;20049;-64
2022/07/31 12:43:47;;;;;;;4.75;4.45;;;;;;;;;;5061663;28;20516;-63
2022/07/31 12:46:12;;;;;;;5.32;4.82;;;;;;;;;;5062705;28;20045;-64
2022/07/31 12:48:37;;;;;;;4.78;4.47;;;;;;;;;;5061536;28;20100;-64
2022/07/31 12:51:02;;;;;;;4.85;4.55;;;;;;;;;;5040247;28;20130;-63
2022/07/31 12:53:29;;;;;;;4.80;4.18;;;;;;;;;;5060947;28;20119;-62
2022/07/31 12:55:54;;;;;;;4.88;4.47;;;;;;;;;;5057433;28;20021;-65
2022/07/31 12:58:19;;;;;;;4.35;3.88;;;;;;;;;;5058830;28;20028;-63
2022/07/31 13:00:45;;;;;;;5.45;4.30;;;;;;;;;;5056892;28;20028;-65
2022/07/31 13:03:10;;;;;;;4.68;4.28;;;;;;;;;;5054821;28;20580;-64
2022/07/31 13:05:35;;;;;;;4.68;4.32;;;;;;;;;;5037518;28;20143;-64
2022/07/31 13:08:01;;;;;;;4.30;3.90;;;;;;;;;;5040114;28;20033;-64
2022/07/31 13:10:27;;;;;;;4.68;4.28;;;;;;;;;;5057935;28;20064;-64
2022/07/31 13:12:53;;;;;;;4.63;4.32;;;;;;;;;;5055095;28;20032;-64
2022/07/31 13:15:20;;;;;;;4.57;4.25;;;;;;;;;;5039329;28;20036;-64
2022/07/31 13:17:46;;;;;;;4.07;3.88;;;;;;;;;;5059941;28;20039;-63
2022/07/31 13:20:11;;;;;;;4.90;3.65;;;;;;;;;;5057241;28;20024;-63
2022/07/31 13:22:37;;;;;;;4.85;4.43;;;;;;;;;;5055196;28;20447;-63
2022/07/31 13:25:02;;;;;;;5.93;4.63;;;;;;;;;;5056741;28;20383;-63
2022/07/31 13:27:27;;;;;;;4.20;3.92;;;;;;;;;;5058850;28;20108;-63
2022/07/31 13:29:53;;;;;;;4.43;4.03;;;;;;;;;;5057174;28;20204;-63
2022/07/31 13:32:18;;;;;;;6.82;5.45;;;;;;;;;;5054341;28;20028;-63
2022/07/31 13:34:43;;;;;;;4.43;3.83;;;;;;;;;;5058582;28;20025;-63
2022/07/31 13:37:08;;;;;;;5.22;4.80;;;;;;;;;;5056929;28;20491;-63
2022/07/31 13:39:34;;;;;;;4.40;4.15;;;;;;;;;;5056345;28;20437;-63
2022/07/31 13:41:59;;;;;;;4.32;4.13;;;;;;;;;;5056667;28;20453;-63
2022/07/31 13:44:24;;;;;;;5.57;4.28;;;;;;;;;;5061852;28;20444;-63
2022/07/31 13:46:49;;;;;;;5.28;4.78;;;;;;;;;;5039245;28;20395;-63
2022/07/31 13:49:15;;;;;;;5.10;4.63;;;;;;;;;;5055506;28;20028;-63
2022/07/31 13:51:40;;;;;;;4.75;4.45;;;;;;;;;;5055660;28;20106;-64
2022/07/31 13:54:05;;;;;;;4.65;4.32;;;;;;;;;;5055644;28;20471;-63
2022/07/31 13:56:31;;;;;;;4.60;4.15;;;;;;;;;;5059644;28;20370;-63
2022/07/31 13:58:56;;;;;;;4.43;4.13;;;;;;;;;;5057374;28;20028;-62
2022/07/31 14:01:21;;;;;;;4.43;4.22;;;;;;;;;;5060522;28;20057;-64
2022/07/31 14:03:47;;;;;;;4.82;4.53;;;;;;;;;;5062882;28;20476;-63
2022/07/31 14:06:12;;;;;;;4.38;4.13;;;;;;;;;;5061564;28;20327;-63
2022/07/31 14:08:37;;;;;;;4.15;3.83;;;;;;;;;;5057827;28;20071;-64
2022/07/31 14:11:03;;;;;;;4.55;4.15;;;;;;;;;;5060745;28;20487;-63
2022/07/31 14:13:28;;;;;;;4.35;4.05;;;;;;;;;;5062419;28;20130;-64
2022/07/31 14:15:54;;;;;;;4.57;4.18;;;;;;;;;;5060117;28;20035;-65
2022/07/31 14:18:19;;;;;;;5.10;4.25;;;;;;;;;;5060091;28;20025;-64
2022/07/31 14:20:45;;;;;;;4.80;4.47;;;;;;;;;;5058546;28;20032;-64
2022/07/31 14:23:10;;;;;;;5.00;4.60;;;;;;;;;;5060853;28;20082;-65
2022/07/31 14:25:36;;;;;;;4.63;4.32;;;;;;;;;;5063694;28;20024;-65
2022/07/31 14:28:01;;;;;;;5.05;4.75;;;;;;;;;;5062500;28;20739;-65
2022/07/31 14:30:27;;;;;;;4.85;4.55;;;;;;;;;;5061053;28;20039;-58
2022/07/31 14:32:53;;;;;;;4.65;4.35;;;;;;;;;;5064125;28;20082;-61
2022/07/31 14:35:18;;;;;;;4.50;4.28;;;;;;;;;;5062822;28;20081;-61
2022/07/31 14:37:45;;;;;;;5.28;4.88;;;;;;;;;;5061496;28;20036;-60
2022/07/31 14:40:10;;;;;;;5.45;5.00;;;;;;;;;;5070608;28;20115;-61
2022/07/31 14:42:36;;;;;;;5.18;4.78;;;;;;;;;;5067601;28;20041;-58